sensor_id;sensor_type;location;lat;lon;timestamp;P1;durP1;ratioP1;P2;durP2;ratioP2
12663;SDS011;6396;58.490;15.528;2023-02-15T00:02:38;12.37;;;9.70;;
12663;SDS011;6396;58.490;15.528;2023-02-15T00:05:06;13.80;;;10.43;;
12663;SDS011;6396;58.490;15.528;2023-02-15T00:07:35;15.03;;;10.27;;
12663;SDS011;6396;58.490;15.528;2023-02-15T00:10:06;17.90;;;11.27;;
12663;SDS011;6396;58.490;15.528;2023-02-15T00:12:36;16.43;;;10.50;;
12663;SDS011;6396;58.490;15.528;2023-02-15T00:15:18;12.47;;;10.13;;
12663;SDS011;6396;58.490;15.528;2023-02-15T00:17:45;15.23;;;10.83;;
12663;SDS011;6396;58.490;15.528;2023-02-15T00:20:12;13.13;;;10.37;;
12663;SDS011;6396;58.490;15.528;2023-02-15T00:22:39;14.93;;;10.50;;
12663;SDS011;6396;58.490;15.528;2023-02-15T00:25:06;15.57;;;10.70;;
12663;SDS011;6396;58.490;15.528;2023-02-15T00:27:35;14.00;;;10.93;;
12663;SDS011;6396;58.490;15.528;2023-02-15T00:30:08;15.60;;;11.90;;
12663;SDS011;6396;58.490;15.528;2023-02-15T00:32:38;17.60;;;11.50;;
12663;SDS011;6396;58.490;15.528;2023-02-15T00:35:05;17.63;;;11.90;;
12663;SDS011;6396;58.490;15.528;2023-02-15T00:37:32;14.90;;;11.40;;
12663;SDS011;6396;58.490;15.528;2023-02-15T00:40:00;16.87;;;11.83;;
12663;SDS011;6396;58.490;15.528;2023-02-15T00:42:27;17.17;;;11.13;;
12663;SDS011;6396;58.490;15.528;2023-02-15T00:44:55;17.70;;;11.30;;
12663;SDS011;6396;58.490;15.528;2023-02-15T00:47:22;17.30;;;11.23;;
12663;SDS011;6396;58.490;15.528;2023-02-15T00:49:50;19.20;;;12.43;;
12663;SDS011;6396;58.490;15.528;2023-02-15T00:52:21;15.50;;;11.70;;
12663;SDS011;6396;58.490;15.528;2023-02-15T00:55:05;15.53;;;11.23;;
12663;SDS011;6396;58.490;15.528;2023-02-15T00:57:33;14.40;;;10.70;;
12663;SDS011;6396;58.490;15.528;2023-02-15T01:00:02;14.13;;;10.73;;
12663;SDS011;6396;58.490;15.528;2023-02-15T01:02:29;15.43;;;11.27;;
12663;SDS011;6396;58.490;15.528;2023-02-15T01:04:56;16.40;;;11.17;;
12663;SDS011;6396;58.490;15.528;2023-02-15T01:07:24;14.70;;;11.03;;
12663;SDS011;6396;58.490;15.528;2023-02-15T01:09:51;16.73;;;11.37;;
12663;SDS011;6396;58.490;15.528;2023-02-15T01:12:18;17.00;;;11.53;;
12663;SDS011;6396;58.490;15.528;2023-02-15T01:14:46;17.97;;;11.57;;
12663;SDS011;6396;58.490;15.528;2023-02-15T01:17:17;21.07;;;11.83;;
12663;SDS011;6396;58.490;15.528;2023-02-15T01:19:45;17.80;;;11.83;;
12663;SDS011;6396;58.490;15.528;2023-02-15T01:22:12;18.70;;;12.20;;
12663;SDS011;6396;58.490;15.528;2023-02-15T01:24:39;16.60;;;11.57;;
12663;SDS011;6396;58.490;15.528;2023-02-15T01:27:07;19.27;;;12.87;;
12663;SDS011;6396;58.490;15.528;2023-02-15T01:29:34;16.93;;;11.77;;
12663;SDS011;6396;58.490;15.528;2023-02-15T01:32:01;17.53;;;12.37;;
12663;SDS011;6396;58.490;15.528;2023-02-15T01:34:30;18.07;;;12.40;;
12663;SDS011;6396;58.490;15.528;2023-02-15T01:36:57;16.97;;;12.50;;
12663;SDS011;6396;58.490;15.528;2023-02-15T01:39:24;16.43;;;11.93;;
12663;SDS011;6396;58.490;15.528;2023-02-15T01:41:51;16.90;;;12.00;;
12663;SDS011;6396;58.490;15.528;2023-02-15T01:47:12;18.67;;;12.83;;
12663;SDS011;6396;58.490;15.528;2023-02-15T01:49:43;20.50;;;13.23;;
12663;SDS011;6396;58.490;15.528;2023-02-15T01:52:14;16.60;;;12.13;;
12663;SDS011;6396;58.490;15.528;2023-02-15T01:54:44;19.93;;;13.20;;
12663;SDS011;6396;58.490;15.528;2023-02-15T01:57:13;18.17;;;12.20;;
12663;SDS011;6396;58.490;15.528;2023-02-15T01:59:45;23.63;;;14.23;;
12663;SDS011;6396;58.490;15.528;2023-02-15T02:02:15;21.27;;;13.47;;
12663;SDS011;6396;58.490;15.528;2023-02-15T02:04:48;20.43;;;13.90;;
12663;SDS011;6396;58.490;15.528;2023-02-15T02:07:19;20.53;;;13.23;;
12663;SDS011;6396;58.490;15.528;2023-02-15T02:09:48;19.70;;;13.90;;
12663;SDS011;6396;58.490;15.528;2023-02-15T02:12:16;19.63;;;13.57;;
12663;SDS011;6396;58.490;15.528;2023-02-15T02:14:54;22.00;;;14.57;;
12663;SDS011;6396;58.490;15.528;2023-02-15T02:18:18;21.60;;;13.53;;
12663;SDS011;6396;58.490;15.528;2023-02-15T02:35:04;20.50;;;13.25;;
12663;SDS011;6396;58.490;15.528;2023-02-15T02:37:41;19.20;;;13.27;;
12663;SDS011;6396;58.490;15.528;2023-02-15T02:40:18;19.87;;;12.63;;
12663;SDS011;6396;58.490;15.528;2023-02-15T02:42:56;21.70;;;13.03;;
12663;SDS011;6396;58.490;15.528;2023-02-15T02:49:07;21.27;;;13.67;;
12663;SDS011;6396;58.490;15.528;2023-02-15T02:54:30;21.77;;;14.03;;
12663;SDS011;6396;58.490;15.528;2023-02-15T02:57:01;24.33;;;13.53;;
12663;SDS011;6396;58.490;15.528;2023-02-15T02:59:32;22.63;;;14.20;;
12663;SDS011;6396;58.490;15.528;2023-02-15T03:02:02;25.00;;;14.27;;
12663;SDS011;6396;58.490;15.528;2023-02-15T03:04:37;21.93;;;13.87;;
12663;SDS011;6396;58.490;15.528;2023-02-15T03:07:14;23.23;;;13.70;;
12663;SDS011;6396;58.490;15.528;2023-02-15T03:09:47;19.50;;;12.87;;
12663;SDS011;6396;58.490;15.528;2023-02-15T03:12:30;21.13;;;13.77;;
12663;SDS011;6396;58.490;15.528;2023-02-15T03:15:19;24.97;;;15.33;;
12663;SDS011;6396;58.490;15.528;2023-02-15T03:18:15;25.07;;;14.10;;
12663;SDS011;6396;58.490;15.528;2023-02-15T03:21:06;25.43;;;14.63;;
12663;SDS011;6396;58.490;15.528;2023-02-15T03:24:10;24.87;;;14.47;;
12663;SDS011;6396;58.490;15.528;2023-02-15T03:27:04;23.17;;;14.63;;
12663;SDS011;6396;58.490;15.528;2023-02-15T03:33:43;23.93;;;14.50;;
12663;SDS011;6396;58.490;15.528;2023-02-15T03:37:03;22.97;;;14.90;;
12663;SDS011;6396;58.490;15.528;2023-02-15T03:39:38;21.63;;;14.23;;
12663;SDS011;6396;58.490;15.528;2023-02-15T03:42:13;22.80;;;14.53;;
12663;SDS011;6396;58.490;15.528;2023-02-15T03:44:46;24.57;;;15.03;;
12663;SDS011;6396;58.490;15.528;2023-02-15T03:47:20;19.87;;;13.63;;
12663;SDS011;6396;58.490;15.528;2023-02-15T03:49:54;23.60;;;14.40;;
12663;SDS011;6396;58.490;15.528;2023-02-15T03:52:27;21.43;;;13.53;;
12663;SDS011;6396;58.490;15.528;2023-02-15T03:55:16;21.27;;;12.87;;
12663;SDS011;6396;58.490;15.528;2023-02-15T03:57:53;20.60;;;14.03;;
12663;SDS011;6396;58.490;15.528;2023-02-15T04:00:43;20.53;;;12.93;;
12663;SDS011;6396;58.490;15.528;2023-02-15T04:09:52;22.20;;;13.27;;
12663;SDS011;6396;58.490;15.528;2023-02-15T04:19:03;21.50;;;13.30;;
12663;SDS011;6396;58.490;15.528;2023-02-15T04:21:49;19.20;;;13.50;;
12663;SDS011;6396;58.490;15.528;2023-02-15T04:24:38;20.03;;;11.93;;
12663;SDS011;6396;58.490;15.528;2023-02-15T04:27:51;17.37;;;11.57;;
12663;SDS011;6396;58.490;15.528;2023-02-15T04:30:23;18.50;;;12.60;;
12663;SDS011;6396;58.490;15.528;2023-02-15T04:32:55;18.83;;;12.37;;
12663;SDS011;6396;58.490;15.528;2023-02-15T04:35:23;18.87;;;11.30;;
12663;SDS011;6396;58.490;15.528;2023-02-15T04:37:51;20.53;;;12.37;;
12663;SDS011;6396;58.490;15.528;2023-02-15T04:40:19;19.50;;;12.60;;
12663;SDS011;6396;58.490;15.528;2023-02-15T04:42:47;18.07;;;11.63;;
12663;SDS011;6396;58.490;15.528;2023-02-15T04:45:15;20.23;;;11.60;;
12663;SDS011;6396;58.490;15.528;2023-02-15T04:47:42;17.00;;;10.57;;
12663;SDS011;6396;58.490;15.528;2023-02-15T04:50:11;16.83;;;10.23;;
12663;SDS011;6396;58.490;15.528;2023-02-15T04:52:38;16.87;;;10.37;;
12663;SDS011;6396;58.490;15.528;2023-02-15T04:55:06;17.20;;;10.77;;
12663;SDS011;6396;58.490;15.528;2023-02-15T04:57:33;16.77;;;10.97;;
12663;SDS011;6396;58.490;15.528;2023-02-15T05:00:00;17.10;;;10.73;;
12663;SDS011;6396;58.490;15.528;2023-02-15T05:02:28;16.20;;;11.00;;
12663;SDS011;6396;58.490;15.528;2023-02-15T05:04:56;19.30;;;11.17;;
12663;SDS011;6396;58.490;15.528;2023-02-15T05:07:26;17.17;;;10.77;;
12663;SDS011;6396;58.490;15.528;2023-02-15T05:09:53;16.43;;;11.23;;
12663;SDS011;6396;58.490;15.528;2023-02-15T05:12:21;17.70;;;9.40;;
12663;SDS011;6396;58.490;15.528;2023-02-15T05:14:48;15.87;;;10.33;;
12663;SDS011;6396;58.490;15.528;2023-02-15T05:17:25;14.37;;;9.87;;
12663;SDS011;6396;58.490;15.528;2023-02-15T05:19:52;16.43;;;11.03;;
12663;SDS011;6396;58.490;15.528;2023-02-15T05:22:19;17.33;;;10.17;;
12663;SDS011;6396;58.490;15.528;2023-02-15T05:24:47;15.00;;;9.53;;
12663;SDS011;6396;58.490;15.528;2023-02-15T05:27:32;16.67;;;9.60;;
12663;SDS011;6396;58.490;15.528;2023-02-15T05:30:17;14.33;;;9.57;;
12663;SDS011;6396;58.490;15.528;2023-02-15T05:32:46;15.90;;;10.10;;
12663;SDS011;6396;58.490;15.528;2023-02-15T05:35:15;14.43;;;9.30;;
12663;SDS011;6396;58.490;15.528;2023-02-15T05:37:42;14.83;;;9.70;;
12663;SDS011;6396;58.490;15.528;2023-02-15T05:40:11;14.83;;;9.77;;
12663;SDS011;6396;58.490;15.528;2023-02-15T05:42:40;16.77;;;9.73;;
12663;SDS011;6396;58.490;15.528;2023-02-15T05:45:07;17.93;;;9.83;;
12663;SDS011;6396;58.490;15.528;2023-02-15T05:47:35;16.33;;;10.00;;
12663;SDS011;6396;58.490;15.528;2023-02-15T05:50:03;16.53;;;10.50;;
12663;SDS011;6396;58.490;15.528;2023-02-15T05:52:35;14.57;;;9.13;;
12663;SDS011;6396;58.490;15.528;2023-02-15T05:55:02;14.93;;;9.50;;
12663;SDS011;6396;58.490;15.528;2023-02-15T05:57:31;14.13;;;9.30;;
12663;SDS011;6396;58.490;15.528;2023-02-15T05:59:58;15.90;;;9.77;;
12663;SDS011;6396;58.490;15.528;2023-02-15T06:02:25;16.63;;;9.97;;
12663;SDS011;6396;58.490;15.528;2023-02-15T06:04:53;16.00;;;8.93;;
12663;SDS011;6396;58.490;15.528;2023-02-15T06:07:26;16.97;;;9.40;;
12663;SDS011;6396;58.490;15.528;2023-02-15T06:09:53;15.67;;;9.33;;
12663;SDS011;6396;58.490;15.528;2023-02-15T06:12:21;15.83;;;9.70;;
12663;SDS011;6396;58.490;15.528;2023-02-15T06:14:50;17.83;;;10.40;;
12663;SDS011;6396;58.490;15.528;2023-02-15T06:17:18;14.20;;;9.33;;
12663;SDS011;6396;58.490;15.528;2023-02-15T06:19:47;17.07;;;10.03;;
12663;SDS011;6396;58.490;15.528;2023-02-15T06:22:14;14.50;;;8.87;;
12663;SDS011;6396;58.490;15.528;2023-02-15T06:24:42;16.43;;;9.73;;
12663;SDS011;6396;58.490;15.528;2023-02-15T06:27:14;14.23;;;8.73;;
12663;SDS011;6396;58.490;15.528;2023-02-15T06:29:42;15.47;;;10.00;;
12663;SDS011;6396;58.490;15.528;2023-02-15T06:32:14;17.23;;;9.70;;
12663;SDS011;6396;58.490;15.528;2023-02-15T06:34:41;15.90;;;9.97;;
12663;SDS011;6396;58.490;15.528;2023-02-15T06:37:11;17.53;;;9.50;;
12663;SDS011;6396;58.490;15.528;2023-02-15T06:39:42;14.67;;;9.77;;
12663;SDS011;6396;58.490;15.528;2023-02-15T06:42:11;14.20;;;9.30;;
12663;SDS011;6396;58.490;15.528;2023-02-15T06:44:41;15.60;;;9.27;;
12663;SDS011;6396;58.490;15.528;2023-02-15T06:47:20;15.37;;;9.97;;
12663;SDS011;6396;58.490;15.528;2023-02-15T06:49:49;16.83;;;9.60;;
12663;SDS011;6396;58.490;15.528;2023-02-15T06:52:20;14.93;;;9.57;;
12663;SDS011;6396;58.490;15.528;2023-02-15T06:54:52;13.30;;;9.00;;
12663;SDS011;6396;58.490;15.528;2023-02-15T06:57:21;14.73;;;9.20;;
12663;SDS011;6396;58.490;15.528;2023-02-15T07:00:04;15.43;;;9.10;;
12663;SDS011;6396;58.490;15.528;2023-02-15T07:02:46;14.37;;;9.53;;
12663;SDS011;6396;58.490;15.528;2023-02-15T07:05:32;13.43;;;9.33;;
12663;SDS011;6396;58.490;15.528;2023-02-15T07:08:14;16.33;;;10.03;;
12663;SDS011;6396;58.490;15.528;2023-02-15T07:10:48;13.93;;;9.17;;
12663;SDS011;6396;58.490;15.528;2023-02-15T07:14:28;17.03;;;9.73;;
12663;SDS011;6396;58.490;15.528;2023-02-15T07:17:38;14.83;;;9.40;;
12663;SDS011;6396;58.490;15.528;2023-02-15T07:20:31;15.43;;;9.70;;
12663;SDS011;6396;58.490;15.528;2023-02-15T07:23:06;16.27;;;9.47;;
12663;SDS011;6396;58.490;15.528;2023-02-15T07:25:38;15.50;;;10.17;;
12663;SDS011;6396;58.490;15.528;2023-02-15T07:28:08;16.00;;;9.57;;
12663;SDS011;6396;58.490;15.528;2023-02-15T07:30:42;15.87;;;9.70;;
12663;SDS011;6396;58.490;15.528;2023-02-15T07:36:01;16.10;;;9.73;;
12663;SDS011;6396;58.490;15.528;2023-02-15T07:38:33;15.50;;;9.43;;
12663;SDS011;6396;58.490;15.528;2023-02-15T07:41:04;16.83;;;9.47;;
12663;SDS011;6396;58.490;15.528;2023-02-15T07:43:49;15.50;;;9.90;;
12663;SDS011;6396;58.490;15.528;2023-02-15T07:46:19;16.30;;;9.40;;
12663;SDS011;6396;58.490;15.528;2023-02-15T07:49:08;17.10;;;9.53;;
12663;SDS011;6396;58.490;15.528;2023-02-15T07:51:53;15.90;;;9.07;;
12663;SDS011;6396;58.490;15.528;2023-02-15T07:54:22;13.87;;;8.50;;
12663;SDS011;6396;58.490;15.528;2023-02-15T07:57:00;16.20;;;9.37;;
12663;SDS011;6396;58.490;15.528;2023-02-15T07:59:33;17.30;;;10.23;;
12663;SDS011;6396;58.490;15.528;2023-02-15T08:02:05;14.43;;;8.93;;
12663;SDS011;6396;58.490;15.528;2023-02-15T08:04:50;15.87;;;9.57;;
12663;SDS011;6396;58.490;15.528;2023-02-15T08:07:19;15.87;;;9.70;;
12663;SDS011;6396;58.490;15.528;2023-02-15T08:09:53;17.77;;;10.13;;
12663;SDS011;6396;58.490;15.528;2023-02-15T08:12:25;15.47;;;9.37;;
12663;SDS011;6396;58.490;15.528;2023-02-15T08:14:54;16.27;;;10.13;;
12663;SDS011;6396;58.490;15.528;2023-02-15T08:17:36;16.93;;;10.37;;
12663;SDS011;6396;58.490;15.528;2023-02-15T08:20:08;15.63;;;10.57;;
12663;SDS011;6396;58.490;15.528;2023-02-15T08:22:36;14.20;;;9.33;;
12663;SDS011;6396;58.490;15.528;2023-02-15T08:25:04;15.90;;;9.83;;
12663;SDS011;6396;58.490;15.528;2023-02-15T08:27:32;15.17;;;9.27;;
12663;SDS011;6396;58.490;15.528;2023-02-15T08:30:01;18.67;;;9.97;;
12663;SDS011;6396;58.490;15.528;2023-02-15T08:32:35;17.30;;;10.43;;
12663;SDS011;6396;58.490;15.528;2023-02-15T08:35:12;17.17;;;10.73;;
12663;SDS011;6396;58.490;15.528;2023-02-15T08:37:42;16.70;;;10.10;;
12663;SDS011;6396;58.490;15.528;2023-02-15T08:40:18;18.33;;;10.73;;
12663;SDS011;6396;58.490;15.528;2023-02-15T08:42:47;19.43;;;10.97;;
12663;SDS011;6396;58.490;15.528;2023-02-15T08:45:14;17.83;;;10.87;;
12663;SDS011;6396;58.490;15.528;2023-02-15T08:47:43;15.73;;;9.87;;
12663;SDS011;6396;58.490;15.528;2023-02-15T08:50:20;16.57;;;10.73;;
12663;SDS011;6396;58.490;15.528;2023-02-15T08:52:49;17.03;;;10.80;;
12663;SDS011;6396;58.490;15.528;2023-02-15T08:55:20;18.43;;;11.20;;
12663;SDS011;6396;58.490;15.528;2023-02-15T08:57:51;17.53;;;11.03;;
12663;SDS011;6396;58.490;15.528;2023-02-15T09:00:21;16.67;;;10.53;;
12663;SDS011;6396;58.490;15.528;2023-02-15T09:02:59;16.93;;;10.60;;
12663;SDS011;6396;58.490;15.528;2023-02-15T09:05:34;17.27;;;10.67;;
12663;SDS011;6396;58.490;15.528;2023-02-15T09:08:08;18.63;;;11.17;;
12663;SDS011;6396;58.490;15.528;2023-02-15T09:10:51;15.33;;;9.47;;
12663;SDS011;6396;58.490;15.528;2023-02-15T09:16:21;19.13;;;10.80;;
12663;SDS011;6396;58.490;15.528;2023-02-15T09:19:06;16.50;;;10.30;;
12663;SDS011;6396;58.490;15.528;2023-02-15T09:21:38;16.83;;;10.13;;
12663;SDS011;6396;58.490;15.528;2023-02-15T09:24:34;15.17;;;10.23;;
12663;SDS011;6396;58.490;15.528;2023-02-15T09:27:16;17.03;;;10.37;;
12663;SDS011;6396;58.490;15.528;2023-02-15T09:29:44;19.00;;;11.80;;
12663;SDS011;6396;58.490;15.528;2023-02-15T09:32:14;18.67;;;11.00;;
12663;SDS011;6396;58.490;15.528;2023-02-15T09:34:56;17.03;;;10.63;;
12663;SDS011;6396;58.490;15.528;2023-02-15T09:37:48;15.07;;;10.17;;
12663;SDS011;6396;58.490;15.528;2023-02-15T09:40:48;20.87;;;11.67;;
12663;SDS011;6396;58.490;15.528;2023-02-15T09:43:30;17.77;;;10.77;;
12663;SDS011;6396;58.490;15.528;2023-02-15T09:46:21;17.97;;;11.13;;
12663;SDS011;6396;58.490;15.528;2023-02-15T09:49:20;17.27;;;10.90;;
12663;SDS011;6396;58.490;15.528;2023-02-15T09:52:05;18.33;;;10.97;;
12663;SDS011;6396;58.490;15.528;2023-02-15T09:55:01;19.30;;;10.80;;
12663;SDS011;6396;58.490;15.528;2023-02-15T09:57:58;19.77;;;11.20;;
12663;SDS011;6396;58.490;15.528;2023-02-15T10:00:39;16.47;;;11.30;;
12663;SDS011;6396;58.490;15.528;2023-02-15T10:03:23;17.37;;;10.97;;
12663;SDS011;6396;58.490;15.528;2023-02-15T10:09:14;18.10;;;10.83;;
12663;SDS011;6396;58.490;15.528;2023-02-15T10:12:16;19.37;;;11.83;;
12663;SDS011;6396;58.490;15.528;2023-02-15T10:15:04;20.37;;;11.83;;
12663;SDS011;6396;58.490;15.528;2023-02-15T10:18:05;18.73;;;12.13;;
12663;SDS011;6396;58.490;15.528;2023-02-15T10:21:17;19.47;;;11.93;;
12663;SDS011;6396;58.490;15.528;2023-02-15T10:24:31;18.03;;;12.33;;
12663;SDS011;6396;58.490;15.528;2023-02-15T10:27:34;20.50;;;12.67;;
12663;SDS011;6396;58.490;15.528;2023-02-15T10:30:29;21.93;;;13.07;;
12663;SDS011;6396;58.490;15.528;2023-02-15T10:33:22;21.80;;;12.63;;
12663;SDS011;6396;58.490;15.528;2023-02-15T10:36:15;17.67;;;11.87;;
12663;SDS011;6396;58.490;15.528;2023-02-15T10:38:52;21.17;;;12.90;;
12663;SDS011;6396;58.490;15.528;2023-02-15T10:41:45;20.03;;;12.63;;
12663;SDS011;6396;58.490;15.528;2023-02-15T10:47:39;18.73;;;12.37;;
12663;SDS011;6396;58.490;15.528;2023-02-15T10:50:17;21.10;;;13.27;;
12663;SDS011;6396;58.490;15.528;2023-02-15T10:53:09;20.70;;;13.07;;
12663;SDS011;6396;58.490;15.528;2023-02-15T10:56:00;21.33;;;13.30;;
12663;SDS011;6396;58.490;15.528;2023-02-15T10:58:49;22.43;;;13.60;;
12663;SDS011;6396;58.490;15.528;2023-02-15T11:01:29;20.03;;;12.83;;
12663;SDS011;6396;58.490;15.528;2023-02-15T11:07:16;20.83;;;13.23;;
12663;SDS011;6396;58.490;15.528;2023-02-15T11:10:00;21.53;;;14.07;;
12663;SDS011;6396;58.490;15.528;2023-02-15T11:12:36;20.23;;;13.40;;
12663;SDS011;6396;58.490;15.528;2023-02-15T11:15:11;21.80;;;14.30;;
12663;SDS011;6396;58.490;15.528;2023-02-15T11:17:55;21.20;;;14.00;;
12663;SDS011;6396;58.490;15.528;2023-02-15T11:20:29;22.90;;;14.60;;
12663;SDS011;6396;58.490;15.528;2023-02-15T11:23:07;20.47;;;13.63;;
12663;SDS011;6396;58.490;15.528;2023-02-15T11:25:46;22.13;;;14.30;;
12663;SDS011;6396;58.490;15.528;2023-02-15T11:28:23;20.80;;;13.30;;
12663;SDS011;6396;58.490;15.528;2023-02-15T11:30:57;21.30;;;13.47;;
12663;SDS011;6396;58.490;15.528;2023-02-15T11:33:33;22.53;;;14.43;;
12663;SDS011;6396;58.490;15.528;2023-02-15T11:36:26;22.10;;;14.37;;
12663;SDS011;6396;58.490;15.528;2023-02-15T11:39:01;19.27;;;13.10;;
12663;SDS011;6396;58.490;15.528;2023-02-15T11:41:37;22.90;;;13.90;;
12663;SDS011;6396;58.490;15.528;2023-02-15T11:44:11;21.20;;;13.17;;
12663;SDS011;6396;58.490;15.528;2023-02-15T11:46:43;22.03;;;13.60;;
12663;SDS011;6396;58.490;15.528;2023-02-15T11:49:20;20.90;;;13.70;;
12663;SDS011;6396;58.490;15.528;2023-02-15T11:51:55;20.43;;;13.00;;
12663;SDS011;6396;58.490;15.528;2023-02-15T11:54:30;20.73;;;13.70;;
12663;SDS011;6396;58.490;15.528;2023-02-15T11:57:15;22.07;;;13.20;;
12663;SDS011;6396;58.490;15.528;2023-02-15T12:00:01;22.40;;;12.67;;
12663;SDS011;6396;58.490;15.528;2023-02-15T12:02:43;21.43;;;12.77;;
12663;SDS011;6396;58.490;15.528;2023-02-15T12:05:46;19.17;;;11.87;;
12663;SDS011;6396;58.490;15.528;2023-02-15T12:08:39;21.97;;;13.30;;
12663;SDS011;6396;58.490;15.528;2023-02-15T12:11:35;23.43;;;12.83;;
12663;SDS011;6396;58.490;15.528;2023-02-15T12:14:24;23.03;;;13.27;;
12663;SDS011;6396;58.490;15.528;2023-02-15T12:17:29;23.87;;;12.60;;
12663;SDS011;6396;58.490;15.528;2023-02-15T12:20:20;21.73;;;13.10;;
12663;SDS011;6396;58.490;15.528;2023-02-15T12:23:32;22.23;;;12.33;;
12663;SDS011;6396;58.490;15.528;2023-02-15T12:29:26;22.40;;;12.00;;
12663;SDS011;6396;58.490;15.528;2023-02-15T12:32:09;23.77;;;13.03;;
12663;SDS011;6396;58.490;15.528;2023-02-15T12:34:44;22.13;;;11.97;;
12663;SDS011;6396;58.490;15.528;2023-02-15T12:37:31;23.37;;;12.23;;
12663;SDS011;6396;58.490;15.528;2023-02-15T12:40:17;21.80;;;12.13;;
12663;SDS011;6396;58.490;15.528;2023-02-15T12:43:19;22.80;;;12.27;;
12663;SDS011;6396;58.490;15.528;2023-02-15T12:45:54;22.57;;;12.80;;
12663;SDS011;6396;58.490;15.528;2023-02-15T12:49:14;20.47;;;10.67;;
12663;SDS011;6396;58.490;15.528;2023-02-15T12:51:51;22.97;;;11.87;;
12663;SDS011;6396;58.490;15.528;2023-02-15T12:54:34;21.23;;;11.97;;
12663;SDS011;6396;58.490;15.528;2023-02-15T13:00:35;22.97;;;11.47;;
12663;SDS011;6396;58.490;15.528;2023-02-15T13:03:16;21.40;;;10.73;;
12663;SDS011;6396;58.490;15.528;2023-02-15T13:06:00;21.30;;;11.20;;
12663;SDS011;6396;58.490;15.528;2023-02-15T13:08:33;23.90;;;11.40;;
12663;SDS011;6396;58.490;15.528;2023-02-15T13:11:32;22.07;;;11.47;;
12663;SDS011;6396;58.490;15.528;2023-02-15T13:14:03;23.40;;;11.77;;
12663;SDS011;6396;58.490;15.528;2023-02-15T13:16:48;24.17;;;11.97;;
12663;SDS011;6396;58.490;15.528;2023-02-15T13:19:51;21.33;;;10.87;;
12663;SDS011;6396;58.490;15.528;2023-02-15T13:22:39;22.60;;;11.73;;
12663;SDS011;6396;58.490;15.528;2023-02-15T13:25:25;21.43;;;10.63;;
12663;SDS011;6396;58.490;15.528;2023-02-15T13:28:05;20.63;;;10.33;;
12663;SDS011;6396;58.490;15.528;2023-02-15T13:30:40;25.67;;;11.47;;
12663;SDS011;6396;58.490;15.528;2023-02-15T13:33:36;20.47;;;10.60;;
12663;SDS011;6396;58.490;15.528;2023-02-15T13:36:36;23.07;;;10.57;;
12663;SDS011;6396;58.490;15.528;2023-02-15T13:39:34;23.77;;;11.67;;
12663;SDS011;6396;58.490;15.528;2023-02-15T13:42:13;19.20;;;10.67;;
12663;SDS011;6396;58.490;15.528;2023-02-15T13:45:01;21.47;;;10.50;;
12663;SDS011;6396;58.490;15.528;2023-02-15T13:47:42;21.97;;;9.70;;
12663;SDS011;6396;58.490;15.528;2023-02-15T13:50:26;21.33;;;10.00;;
12663;SDS011;6396;58.490;15.528;2023-02-15T13:53:27;21.97;;;10.23;;
12663;SDS011;6396;58.490;15.528;2023-02-15T13:56:16;23.33;;;11.00;;
12663;SDS011;6396;58.490;15.528;2023-02-15T13:59:00;20.77;;;10.20;;
12663;SDS011;6396;58.490;15.528;2023-02-15T14:01:58;20.83;;;9.87;;
12663;SDS011;6396;58.490;15.528;2023-02-15T14:04:53;20.20;;;9.43;;
12663;SDS011;6396;58.490;15.528;2023-02-15T14:08:01;24.40;;;10.80;;
12663;SDS011;6396;58.490;15.528;2023-02-15T14:10:50;21.10;;;11.17;;
12663;SDS011;6396;58.490;15.528;2023-02-15T14:16:31;23.70;;;9.70;;
12663;SDS011;6396;58.490;15.528;2023-02-15T14:19:16;25.57;;;12.03;;
12663;SDS011;6396;58.490;15.528;2023-02-15T14:21:57;23.27;;;10.40;;
12663;SDS011;6396;58.490;15.528;2023-02-15T14:24:55;24.63;;;11.07;;
12663;SDS011;6396;58.490;15.528;2023-02-15T14:27:43;23.57;;;11.13;;
12663;SDS011;6396;58.490;15.528;2023-02-15T14:30:34;23.70;;;11.60;;
12663;SDS011;6396;58.490;15.528;2023-02-15T14:33:36;23.93;;;11.20;;
12663;SDS011;6396;58.490;15.528;2023-02-15T14:36:17;25.87;;;11.43;;
12663;SDS011;6396;58.490;15.528;2023-02-15T14:38:55;22.87;;;11.50;;
12663;SDS011;6396;58.490;15.528;2023-02-15T14:42:17;23.13;;;11.07;;
12663;SDS011;6396;58.490;15.528;2023-02-15T14:44:52;23.97;;;11.20;;
12663;SDS011;6396;58.490;15.528;2023-02-15T14:47:33;20.90;;;10.67;;
12663;SDS011;6396;58.490;15.528;2023-02-15T14:56:17;23.90;;;11.40;;
12663;SDS011;6396;58.490;15.528;2023-02-15T15:02:00;27.43;;;12.13;;
12663;SDS011;6396;58.490;15.528;2023-02-15T15:04:41;26.00;;;12.83;;
12663;SDS011;6396;58.490;15.528;2023-02-15T15:07:19;25.80;;;12.37;;
12663;SDS011;6396;58.490;15.528;2023-02-15T15:09:58;24.50;;;12.13;;
12663;SDS011;6396;58.490;15.528;2023-02-15T15:12:40;23.80;;;12.03;;
12663;SDS011;6396;58.490;15.528;2023-02-15T15:15:32;26.53;;;13.23;;
12663;SDS011;6396;58.490;15.528;2023-02-15T15:27:40;23.23;;;11.73;;
12663;SDS011;6396;58.490;15.528;2023-02-15T15:49:54;24.57;;;12.90;;
12663;SDS011;6396;58.490;15.528;2023-02-15T15:52:22;26.40;;;13.47;;
12663;SDS011;6396;58.490;15.528;2023-02-15T15:54:50;28.17;;;13.33;;
12663;SDS011;6396;58.490;15.528;2023-02-15T15:57:24;26.63;;;13.00;;
12663;SDS011;6396;58.490;15.528;2023-02-15T16:00:00;25.53;;;13.27;;
12663;SDS011;6396;58.490;15.528;2023-02-15T16:02:28;24.43;;;12.93;;
12663;SDS011;6396;58.490;15.528;2023-02-15T16:05:05;24.83;;;12.90;;
12663;SDS011;6396;58.490;15.528;2023-02-15T16:07:34;27.30;;;13.90;;
12663;SDS011;6396;58.490;15.528;2023-02-15T16:10:03;27.93;;;13.80;;
12663;SDS011;6396;58.490;15.528;2023-02-15T16:12:33;28.40;;;13.93;;
12663;SDS011;6396;58.490;15.528;2023-02-15T16:15:04;25.33;;;14.03;;
12663;SDS011;6396;58.490;15.528;2023-02-15T16:17:41;26.13;;;12.93;;
12663;SDS011;6396;58.490;15.528;2023-02-15T16:20:14;25.60;;;13.63;;
12663;SDS011;6396;58.490;15.528;2023-02-15T16:22:45;25.97;;;13.40;;
12663;SDS011;6396;58.490;15.528;2023-02-15T16:25:17;26.97;;;13.70;;
12663;SDS011;6396;58.490;15.528;2023-02-15T16:28:05;26.40;;;13.57;;
12663;SDS011;6396;58.490;15.528;2023-02-15T16:30:33;27.83;;;14.53;;
12663;SDS011;6396;58.490;15.528;2023-02-15T16:33:05;26.07;;;14.23;;
12663;SDS011;6396;58.490;15.528;2023-02-15T16:35:34;28.53;;;14.93;;
12663;SDS011;6396;58.490;15.528;2023-02-15T16:38:02;28.73;;;14.97;;
12663;SDS011;6396;58.490;15.528;2023-02-15T16:40:39;28.27;;;14.83;;
12663;SDS011;6396;58.490;15.528;2023-02-15T16:43:14;31.57;;;14.60;;
12663;SDS011;6396;58.490;15.528;2023-02-15T16:45:44;29.67;;;14.93;;
12663;SDS011;6396;58.490;15.528;2023-02-15T16:48:13;31.13;;;14.77;;
12663;SDS011;6396;58.490;15.528;2023-02-15T16:50:46;28.17;;;14.50;;
12663;SDS011;6396;58.490;15.528;2023-02-15T16:53:18;31.03;;;16.33;;
12663;SDS011;6396;58.490;15.528;2023-02-15T16:55:50;27.80;;;14.47;;
12663;SDS011;6396;58.490;15.528;2023-02-15T16:58:21;29.83;;;15.53;;
12663;SDS011;6396;58.490;15.528;2023-02-15T17:00:56;30.33;;;14.80;;
12663;SDS011;6396;58.490;15.528;2023-02-15T17:03:25;31.33;;;15.00;;
12663;SDS011;6396;58.490;15.528;2023-02-15T17:05:53;27.13;;;14.47;;
12663;SDS011;6396;58.490;15.528;2023-02-15T17:08:26;28.43;;;15.87;;
12663;SDS011;6396;58.490;15.528;2023-02-15T17:11:02;31.37;;;15.27;;